This is the latest recevied weather packets stored in our database for station/object TG9SRP-22. If no packets are shown the sender has not sent any weather packets the latest 10 day(s).
| Time | Temp. | Humidity | Pressure | Rain* | Wind** | Luminosity | Snow |
|---|---|---|---|---|---|---|---|
| 1777219004 | 22.22° C | 69% | 1013 hPa | 0 mm | - | - | - |
| 1777218404 | 22.22° C | 69% | 1013 hPa | 0 mm | - | - | - |
| 1777217803 | 21.11° C | 76% | 1013 hPa | 0 mm | - | - | - |
| 1777217203 | 22.22° C | 76% | 1014 hPa | 0 mm | - | - | - |
| 1777216602 | 21.11° C | 69% | 1014 hPa | 0 mm | - | - | - |
| 1777216002 | 21.67° C | 69% | 1014 hPa | 0 mm | - | - | - |
| 1777215401 | 18.89° C | 83% | 1014 hPa | 0 mm | - | - | - |
| 1777214800 | 18.89° C | 83% | 1014 hPa | 0 mm | - | - | - |
| 1777214200 | 18.89° C | 83% | 1014 hPa | 0 mm | - | - | - |
| 1777213599 | 17.78° C | 87% | 1014 hPa | 0 mm | - | - | - |
| 1777212999 | 18.89° C | 87% | 1014 hPa | 0 mm | - | - | - |
| 1777212398 | 18.33° C | 83% | 1014 hPa | 0 mm | - | - | - |
| 1777211797 | 17.22° C | 88% | 1014 hPa | 0 mm | - | - | - |
| 1777211197 | 17.22° C | 88% | 1014 hPa | 0 mm | - | - | - |
| 1777210596 | 16.11° C | 88% | 1014 hPa | 0 mm | - | - | - |
| 1777209996 | 17.22° C | 88% | 1014 hPa | 0 mm | - | - | - |
| 1777209395 | 15.56° C | 94% | 1014 hPa | 0 mm | - | - | - |
| 1777208794 | 15.56° C | 94% | 1014 hPa | 0 mm | - | - | - |
| 1777208194 | 16.11° C | 95% | 1014 hPa | 0 mm | - | - | - |
| 1777207593 | 15.56° C | 94% | 1014 hPa | 0 mm | - | - | - |
| 1777206993 | 16.11° C | 94% | 1014 hPa | 0 mm | - | - | - |
| 1777206392 | 13.89° C | 95% | 1014 hPa | 0 mm | - | - | - |
| 1777205791 | 14.44° C | 95% | 1014 hPa | 0 mm | - | - | - |
| 1777205191 | 15° C | 95% | 1014 hPa | 0 mm | - | - | - |
| 1777204590 | 15.56° C | 95% | 1014 hPa | 0 mm | - | - | - |
* Rain latest hour (hover to see other rain measurements)
** Current wind speed in m/s (hover to see current wind gust speed)